sensor_id;sensor_type;location;lat;lon;timestamp;P1;durP1;ratioP1;P2;durP2;ratioP2
25868;SDS011;13688;53.154;18.136;2022-11-15T00:03:23;91.77;;;43.90;;
25868;SDS011;13688;53.154;18.136;2022-11-15T00:08:45;91.13;;;44.10;;
25868;SDS011;13688;53.154;18.136;2022-11-15T00:14:08;92.57;;;44.63;;
25868;SDS011;13688;53.154;18.136;2022-11-15T00:19:30;85.90;;;43.60;;
25868;SDS011;13688;53.154;18.136;2022-11-15T00:24:52;91.97;;;45.33;;
25868;SDS011;13688;53.154;18.136;2022-11-15T00:30:15;94.75;;;45.65;;
25868;SDS011;13688;53.154;18.136;2022-11-15T00:35:38;94.40;;;48.25;;
25868;SDS011;13688;53.154;18.136;2022-11-15T00:41:02;95.60;;;46.23;;
25868;SDS011;13688;53.154;18.136;2022-11-15T00:46:25;92.08;;;44.38;;
25868;SDS011;13688;53.154;18.136;2022-11-15T00:51:48;89.25;;;42.17;;
25868;SDS011;13688;53.154;18.136;2022-11-15T00:57:10;89.65;;;43.80;;
25868;SDS011;13688;53.154;18.136;2022-11-15T01:02:33;90.97;;;44.63;;
25868;SDS011;13688;53.154;18.136;2022-11-15T01:07:56;90.13;;;45.07;;
25868;SDS011;13688;53.154;18.136;2022-11-15T01:13:22;98.60;;;47.47;;
25868;SDS011;13688;53.154;18.136;2022-11-15T01:18:48;103.07;;;47.62;;
25868;SDS011;13688;53.154;18.136;2022-11-15T01:24:11;95.25;;;47.38;;
25868;SDS011;13688;53.154;18.136;2022-11-15T01:29:34;103.83;;;49.25;;
25868;SDS011;13688;53.154;18.136;2022-11-15T01:34:56;97.65;;;47.33;;
25868;SDS011;13688;53.154;18.136;2022-11-15T01:40:19;103.97;;;48.08;;
25868;SDS011;13688;53.154;18.136;2022-11-15T01:45:41;104.43;;;46.63;;
25868;SDS011;13688;53.154;18.136;2022-11-15T01:51:07;111.95;;;49.03;;
25868;SDS011;13688;53.154;18.136;2022-11-15T01:56:33;105.52;;;47.90;;
25868;SDS011;13688;53.154;18.136;2022-11-15T02:02:00;110.65;;;48.98;;
25868;SDS011;13688;53.154;18.136;2022-11-15T02:07:22;104.87;;;48.42;;
25868;SDS011;13688;53.154;18.136;2022-11-15T02:12:46;110.35;;;48.95;;
25868;SDS011;13688;53.154;18.136;2022-11-15T02:23:56;117.80;;;50.17;;
25868;SDS011;13688;53.154;18.136;2022-11-15T02:35:56;118.55;;;50.25;;
25868;SDS011;13688;53.154;18.136;2022-11-15T02:41:30;123.60;;;49.33;;
25868;SDS011;13688;53.154;18.136;2022-11-15T02:47:06;118.37;;;50.23;;
25868;SDS011;13688;53.154;18.136;2022-11-15T02:52:26;121.17;;;50.50;;
25868;SDS011;13688;53.154;18.136;2022-11-15T02:57:52;120.80;;;50.75;;
25868;SDS011;13688;53.154;18.136;2022-11-15T03:09:10;114.72;;;48.52;;
25868;SDS011;13688;53.154;18.136;2022-11-15T03:14:58;119.35;;;48.65;;
25868;SDS011;13688;53.154;18.136;2022-11-15T03:20:29;122.82;;;48.68;;
25868;SDS011;13688;53.154;18.136;2022-11-15T03:25:53;117.25;;;48.42;;
25868;SDS011;13688;53.154;18.136;2022-11-15T03:31:18;125.33;;;49.40;;
25868;SDS011;13688;53.154;18.136;2022-11-15T03:36:54;123.80;;;48.73;;
25868;SDS011;13688;53.154;18.136;2022-11-15T03:42:22;124.20;;;49.33;;
25868;SDS011;13688;53.154;18.136;2022-11-15T03:48:01;122.92;;;49.60;;
25868;SDS011;13688;53.154;18.136;2022-11-15T03:53:29;113.60;;;45.83;;
25868;SDS011;13688;53.154;18.136;2022-11-15T03:58:52;91.87;;;40.58;;
25868;SDS011;13688;53.154;18.136;2022-11-15T04:04:14;91.02;;;40.08;;
25868;SDS011;13688;53.154;18.136;2022-11-15T04:09:36;95.00;;;39.83;;
25868;SDS011;13688;53.154;18.136;2022-11-15T04:15:13;89.25;;;39.27;;
25868;SDS011;13688;53.154;18.136;2022-11-15T04:20:37;87.20;;;39.33;;
25868;SDS011;13688;53.154;18.136;2022-11-15T04:26:18;101.90;;;42.43;;
25868;SDS011;13688;53.154;18.136;2022-11-15T04:31:41;95.83;;;40.73;;
25868;SDS011;13688;53.154;18.136;2022-11-15T04:37:03;101.20;;;39.40;;
25868;SDS011;13688;53.154;18.136;2022-11-15T04:42:25;91.93;;;39.43;;
25868;SDS011;13688;53.154;18.136;2022-11-15T04:47:49;90.50;;;38.97;;
25868;SDS011;13688;53.154;18.136;2022-11-15T04:53:11;89.62;;;38.25;;
25868;SDS011;13688;53.154;18.136;2022-11-15T04:58:35;90.62;;;37.63;;
25868;SDS011;13688;53.154;18.136;2022-11-15T05:04:00;79.70;;;34.40;;
25868;SDS011;13688;53.154;18.136;2022-11-15T05:09:23;88.20;;;38.97;;
25868;SDS011;13688;53.154;18.136;2022-11-15T05:14:45;86.05;;;37.48;;
25868;SDS011;13688;53.154;18.136;2022-11-15T05:20:08;90.70;;;39.20;;
25868;SDS011;13688;53.154;18.136;2022-11-15T05:25:31;86.57;;;36.00;;
25868;SDS011;13688;53.154;18.136;2022-11-15T05:30:57;84.30;;;35.23;;
25868;SDS011;13688;53.154;18.136;2022-11-15T05:36:27;87.70;;;38.30;;
25868;SDS011;13688;53.154;18.136;2022-11-15T05:41:53;90.60;;;38.20;;
25868;SDS011;13688;53.154;18.136;2022-11-15T05:47:24;90.07;;;37.35;;
25868;SDS011;13688;53.154;18.136;2022-11-15T05:52:48;92.82;;;38.38;;
25868;SDS011;13688;53.154;18.136;2022-11-15T05:58:12;87.37;;;37.65;;
25868;SDS011;13688;53.154;18.136;2022-11-15T06:03:35;86.97;;;37.83;;
25868;SDS011;13688;53.154;18.136;2022-11-15T06:08:57;91.90;;;38.17;;
25868;SDS011;13688;53.154;18.136;2022-11-15T06:14:19;105.75;;;41.33;;
25868;SDS011;13688;53.154;18.136;2022-11-15T06:19:41;91.02;;;37.10;;
25868;SDS011;13688;53.154;18.136;2022-11-15T06:25:04;95.38;;;39.40;;
25868;SDS011;13688;53.154;18.136;2022-11-15T06:30:26;100.50;;;39.33;;
25868;SDS011;13688;53.154;18.136;2022-11-15T06:35:50;96.37;;;38.78;;
25868;SDS011;13688;53.154;18.136;2022-11-15T06:41:18;97.72;;;39.27;;
25868;SDS011;13688;53.154;18.136;2022-11-15T06:46:40;100.35;;;39.65;;
25868;SDS011;13688;53.154;18.136;2022-11-15T06:52:03;108.47;;;42.38;;
25868;SDS011;13688;53.154;18.136;2022-11-15T06:57:25;98.70;;;40.47;;
25868;SDS011;13688;53.154;18.136;2022-11-15T07:02:49;103.55;;;41.95;;
25868;SDS011;13688;53.154;18.136;2022-11-15T07:08:13;104.70;;;43.33;;
25868;SDS011;13688;53.154;18.136;2022-11-15T07:13:37;105.63;;;43.68;;
25868;SDS011;13688;53.154;18.136;2022-11-15T07:18:59;93.47;;;40.70;;
25868;SDS011;13688;53.154;18.136;2022-11-15T07:24:21;88.30;;;38.17;;
25868;SDS011;13688;53.154;18.136;2022-11-15T07:29:44;91.65;;;38.35;;
25868;SDS011;13688;53.154;18.136;2022-11-15T07:35:06;91.08;;;38.65;;
25868;SDS011;13688;53.154;18.136;2022-11-15T07:40:29;92.72;;;37.00;;
25868;SDS011;13688;53.154;18.136;2022-11-15T07:45:52;95.77;;;42.00;;
25868;SDS011;13688;53.154;18.136;2022-11-15T07:51:15;106.33;;;44.50;;
25868;SDS011;13688;53.154;18.136;2022-11-15T07:56:38;101.55;;;42.33;;
25868;SDS011;13688;53.154;18.136;2022-11-15T08:02:02;98.15;;;42.62;;
25868;SDS011;13688;53.154;18.136;2022-11-15T08:07:28;84.47;;;38.33;;
25868;SDS011;13688;53.154;18.136;2022-11-15T08:12:56;96.50;;;41.45;;
25868;SDS011;13688;53.154;18.136;2022-11-15T08:18:21;89.05;;;38.15;;
25868;SDS011;13688;53.154;18.136;2022-11-15T08:23:44;88.00;;;39.73;;
25868;SDS011;13688;53.154;18.136;2022-11-15T08:29:06;96.27;;;42.17;;
25868;SDS011;13688;53.154;18.136;2022-11-15T08:34:28;99.20;;;40.67;;
25868;SDS011;13688;53.154;18.136;2022-11-15T08:39:50;99.65;;;40.20;;
25868;SDS011;13688;53.154;18.136;2022-11-15T08:45:13;98.30;;;40.33;;
25868;SDS011;13688;53.154;18.136;2022-11-15T08:50:36;102.27;;;39.58;;
25868;SDS011;13688;53.154;18.136;2022-11-15T08:55:58;86.25;;;36.55;;
25868;SDS011;13688;53.154;18.136;2022-11-15T09:01:24;92.85;;;37.85;;
25868;SDS011;13688;53.154;18.136;2022-11-15T09:06:47;85.25;;;36.83;;
25868;SDS011;13688;53.154;18.136;2022-11-15T09:12:10;83.65;;;35.90;;
25868;SDS011;13688;53.154;18.136;2022-11-15T09:17:32;76.82;;;33.18;;
25868;SDS011;13688;53.154;18.136;2022-11-15T09:22:54;82.15;;;35.63;;
25868;SDS011;13688;53.154;18.136;2022-11-15T09:28:18;73.50;;;33.58;;
25868;SDS011;13688;53.154;18.136;2022-11-15T09:33:45;116.17;;;57.23;;
25868;SDS011;13688;53.154;18.136;2022-11-15T09:39:07;98.85;;;43.20;;
25868;SDS011;13688;53.154;18.136;2022-11-15T09:44:48;90.55;;;38.95;;
25868;SDS011;13688;53.154;18.136;2022-11-15T09:56:14;106.90;;;41.92;;
25868;SDS011;13688;53.154;18.136;2022-11-15T10:01:36;93.05;;;41.58;;
25868;SDS011;13688;53.154;18.136;2022-11-15T10:07:08;95.53;;;41.23;;
25868;SDS011;13688;53.154;18.136;2022-11-15T10:12:49;97.20;;;41.85;;
25868;SDS011;13688;53.154;18.136;2022-11-15T10:18:15;96.32;;;40.17;;
25868;SDS011;13688;53.154;18.136;2022-11-15T10:23:46;82.08;;;38.80;;
25868;SDS011;13688;53.154;18.136;2022-11-15T10:29:09;81.78;;;38.00;;
25868;SDS011;13688;53.154;18.136;2022-11-15T10:34:35;83.67;;;38.02;;
25868;SDS011;13688;53.154;18.136;2022-11-15T10:40:05;81.55;;;37.17;;
25868;SDS011;13688;53.154;18.136;2022-11-15T10:45:32;78.15;;;35.33;;
25868;SDS011;13688;53.154;18.136;2022-11-15T10:50:56;77.85;;;35.80;;
25868;SDS011;13688;53.154;18.136;2022-11-15T10:56:22;87.02;;;38.75;;
25868;SDS011;13688;53.154;18.136;2022-11-15T11:01:45;90.20;;;38.70;;
25868;SDS011;13688;53.154;18.136;2022-11-15T11:07:19;77.25;;;35.98;;
25868;SDS011;13688;53.154;18.136;2022-11-15T11:12:35;82.55;;;38.05;;
25868;SDS011;13688;53.154;18.136;2022-11-15T11:18:06;80.65;;;36.53;;
25868;SDS011;13688;53.154;18.136;2022-11-15T11:29:38;76.35;;;35.98;;
25868;SDS011;13688;53.154;18.136;2022-11-15T11:35:22;72.78;;;35.10;;
25868;SDS011;13688;53.154;18.136;2022-11-15T11:40:54;81.63;;;37.90;;
25868;SDS011;13688;53.154;18.136;2022-11-15T11:46:38;73.40;;;35.20;;
25868;SDS011;13688;53.154;18.136;2022-11-15T11:57:40;88.30;;;39.85;;
25868;SDS011;13688;53.154;18.136;2022-11-15T12:03:29;88.50;;;39.15;;
25868;SDS011;13688;53.154;18.136;2022-11-15T12:14:59;90.07;;;40.40;;
25868;SDS011;13688;53.154;18.136;2022-11-15T12:20:22;88.42;;;40.25;;
25868;SDS011;13688;53.154;18.136;2022-11-15T12:31:19;78.67;;;37.38;;
25868;SDS011;13688;53.154;18.136;2022-11-15T12:37:00;80.33;;;37.30;;
25868;SDS011;13688;53.154;18.136;2022-11-15T12:42:59;75.70;;;37.77;;
25868;SDS011;13688;53.154;18.136;2022-11-15T12:48:48;78.23;;;36.67;;
25868;SDS011;13688;53.154;18.136;2022-11-15T13:23:10;89.50;;;38.80;;
25868;SDS011;13688;53.154;18.136;2022-11-15T13:28:34;115.33;;;48.30;;
25868;SDS011;13688;53.154;18.136;2022-11-15T13:34:12;108.43;;;45.23;;
25868;SDS011;13688;53.154;18.136;2022-11-15T13:39:41;104.20;;;42.25;;
25868;SDS011;13688;53.154;18.136;2022-11-15T13:45:05;95.25;;;41.08;;
25868;SDS011;13688;53.154;18.136;2022-11-15T13:50:31;89.50;;;39.50;;
25868;SDS011;13688;53.154;18.136;2022-11-15T13:55:56;91.45;;;37.63;;
25868;SDS011;13688;53.154;18.136;2022-11-15T14:01:20;88.20;;;37.40;;
25868;SDS011;13688;53.154;18.136;2022-11-15T14:06:45;84.80;;;34.58;;
25868;SDS011;13688;53.154;18.136;2022-11-15T14:17:48;87.57;;;39.45;;
25868;SDS011;13688;53.154;18.136;2022-11-15T14:23:24;83.07;;;35.90;;
25868;SDS011;13688;53.154;18.136;2022-11-15T14:28:42;94.87;;;44.30;;
25868;SDS011;13688;53.154;18.136;2022-11-15T14:34:04;82.17;;;36.35;;
25868;SDS011;13688;53.154;18.136;2022-11-15T14:39:27;83.27;;;36.50;;
25868;SDS011;13688;53.154;18.136;2022-11-15T14:44:49;89.00;;;37.58;;
25868;SDS011;13688;53.154;18.136;2022-11-15T14:50:17;95.03;;;40.50;;
25868;SDS011;13688;53.154;18.136;2022-11-15T14:55:37;94.23;;;38.83;;
25868;SDS011;13688;53.154;18.136;2022-11-15T15:01:01;85.55;;;36.83;;
25868;SDS011;13688;53.154;18.136;2022-11-15T15:06:33;84.25;;;37.25;;
25868;SDS011;13688;53.154;18.136;2022-11-15T15:11:56;87.25;;;38.33;;
25868;SDS011;13688;53.154;18.136;2022-11-15T15:17:22;89.28;;;38.48;;
25868;SDS011;13688;53.154;18.136;2022-11-15T15:22:45;78.57;;;35.33;;
25868;SDS011;13688;53.154;18.136;2022-11-15T15:28:07;83.37;;;35.30;;
25868;SDS011;13688;53.154;18.136;2022-11-15T15:33:32;85.60;;;36.37;;
25868;SDS011;13688;53.154;18.136;2022-11-15T15:38:54;152.65;;;75.42;;
25868;SDS011;13688;53.154;18.136;2022-11-15T15:44:19;73.45;;;34.43;;
25868;SDS011;13688;53.154;18.136;2022-11-15T15:49:41;75.05;;;33.98;;
25868;SDS011;13688;53.154;18.136;2022-11-15T15:55:04;69.97;;;32.42;;
25868;SDS011;13688;53.154;18.136;2022-11-15T16:00:28;67.15;;;31.00;;
25868;SDS011;13688;53.154;18.136;2022-11-15T16:05:50;55.90;;;27.57;;
25868;SDS011;13688;53.154;18.136;2022-11-15T16:11:14;59.55;;;28.52;;
25868;SDS011;13688;53.154;18.136;2022-11-15T16:16:36;57.10;;;28.53;;
25868;SDS011;13688;53.154;18.136;2022-11-15T16:21:59;63.37;;;28.73;;
25868;SDS011;13688;53.154;18.136;2022-11-15T16:27:21;65.08;;;29.95;;
25868;SDS011;13688;53.154;18.136;2022-11-15T16:32:46;62.93;;;30.70;;
25868;SDS011;13688;53.154;18.136;2022-11-15T16:38:12;68.52;;;30.85;;
25868;SDS011;13688;53.154;18.136;2022-11-15T16:43:34;64.77;;;30.40;;
25868;SDS011;13688;53.154;18.136;2022-11-15T16:48:57;63.95;;;30.25;;
25868;SDS011;13688;53.154;18.136;2022-11-15T16:54:23;62.30;;;29.05;;
25868;SDS011;13688;53.154;18.136;2022-11-15T16:59:46;66.27;;;29.17;;
25868;SDS011;13688;53.154;18.136;2022-11-15T17:05:08;65.53;;;30.33;;
25868;SDS011;13688;53.154;18.136;2022-11-15T17:10:32;56.90;;;28.13;;
25868;SDS011;13688;53.154;18.136;2022-11-15T17:16:05;58.75;;;27.32;;
25868;SDS011;13688;53.154;18.136;2022-11-15T17:21:29;62.55;;;29.35;;
25868;SDS011;13688;53.154;18.136;2022-11-15T17:26:52;77.08;;;38.00;;
25868;SDS011;13688;53.154;18.136;2022-11-15T17:32:15;67.80;;;29.42;;
25868;SDS011;13688;53.154;18.136;2022-11-15T17:37:37;64.87;;;27.27;;
25868;SDS011;13688;53.154;18.136;2022-11-15T17:43:00;68.62;;;29.57;;
25868;SDS011;13688;53.154;18.136;2022-11-15T17:48:22;63.65;;;28.83;;
25868;SDS011;13688;53.154;18.136;2022-11-15T17:53:46;56.30;;;27.15;;
25868;SDS011;13688;53.154;18.136;2022-11-15T17:59:11;54.95;;;27.20;;
25868;SDS011;13688;53.154;18.136;2022-11-15T18:04:34;61.88;;;26.80;;
25868;SDS011;13688;53.154;18.136;2022-11-15T18:09:56;63.58;;;27.70;;
25868;SDS011;13688;53.154;18.136;2022-11-15T18:15:18;60.55;;;27.25;;
25868;SDS011;13688;53.154;18.136;2022-11-15T18:20:41;64.22;;;29.37;;
25868;SDS011;13688;53.154;18.136;2022-11-15T18:26:14;56.80;;;27.67;;
25868;SDS011;13688;53.154;18.136;2022-11-15T18:31:39;59.65;;;27.42;;
25868;SDS011;13688;53.154;18.136;2022-11-15T18:37:02;59.18;;;28.50;;
25868;SDS011;13688;53.154;18.136;2022-11-15T18:42:25;67.40;;;29.90;;
25868;SDS011;13688;53.154;18.136;2022-11-15T18:47:47;58.15;;;28.07;;
25868;SDS011;13688;53.154;18.136;2022-11-15T18:53:09;58.13;;;26.80;;
25868;SDS011;13688;53.154;18.136;2022-11-15T18:58:32;57.97;;;27.30;;
25868;SDS011;13688;53.154;18.136;2022-11-15T19:03:57;55.10;;;27.27;;
25868;SDS011;13688;53.154;18.136;2022-11-15T19:09:24;58.20;;;25.52;;
25868;SDS011;13688;53.154;18.136;2022-11-15T19:14:49;51.10;;;24.47;;
25868;SDS011;13688;53.154;18.136;2022-11-15T19:20:13;49.10;;;25.08;;
25868;SDS011;13688;53.154;18.136;2022-11-15T19:25:36;49.97;;;24.90;;
25868;SDS011;13688;53.154;18.136;2022-11-15T19:31:07;52.25;;;26.02;;
25868;SDS011;13688;53.154;18.136;2022-11-15T19:36:41;54.08;;;25.95;;
25868;SDS011;13688;53.154;18.136;2022-11-15T19:42:06;58.40;;;27.37;;
25868;SDS011;13688;53.154;18.136;2022-11-15T19:47:30;47.20;;;24.47;;
25868;SDS011;13688;53.154;18.136;2022-11-15T19:52:52;49.53;;;24.02;;
25868;SDS011;13688;53.154;18.136;2022-11-15T19:58:15;52.55;;;25.27;;
25868;SDS011;13688;53.154;18.136;2022-11-15T20:03:39;48.52;;;23.77;;
25868;SDS011;13688;53.154;18.136;2022-11-15T20:09:02;47.15;;;23.65;;
25868;SDS011;13688;53.154;18.136;2022-11-15T20:14:28;49.03;;;22.70;;
25868;SDS011;13688;53.154;18.136;2022-11-15T20:19:50;47.38;;;24.02;;
25868;SDS011;13688;53.154;18.136;2022-11-15T20:25:14;48.17;;;23.97;;
25868;SDS011;13688;53.154;18.136;2022-11-15T20:30:42;42.65;;;21.27;;
25868;SDS011;13688;53.154;18.136;2022-11-15T20:36:09;41.63;;;21.23;;
25868;SDS011;13688;53.154;18.136;2022-11-15T20:41:31;38.58;;;20.62;;
25868;SDS011;13688;53.154;18.136;2022-11-15T20:46:53;44.83;;;23.70;;
25868;SDS011;13688;53.154;18.136;2022-11-15T20:52:16;38.70;;;19.73;;
25868;SDS011;13688;53.154;18.136;2022-11-15T20:57:41;33.97;;;18.30;;
25868;SDS011;13688;53.154;18.136;2022-11-15T21:03:04;38.17;;;19.40;;
25868;SDS011;13688;53.154;18.136;2022-11-15T21:08:29;38.23;;;19.47;;
25868;SDS011;13688;53.154;18.136;2022-11-15T21:14:11;38.05;;;19.05;;
25868;SDS011;13688;53.154;18.136;2022-11-15T21:19:33;38.07;;;19.53;;
25868;SDS011;13688;53.154;18.136;2022-11-15T21:24:56;37.75;;;20.25;;
25868;SDS011;13688;53.154;18.136;2022-11-15T21:30:18;35.90;;;20.43;;
25868;SDS011;13688;53.154;18.136;2022-11-15T21:35:41;43.67;;;23.20;;
25868;SDS011;13688;53.154;18.136;2022-11-15T21:41:04;41.23;;;23.05;;
25868;SDS011;13688;53.154;18.136;2022-11-15T21:46:27;49.30;;;26.15;;
25868;SDS011;13688;53.154;18.136;2022-11-15T21:51:50;54.58;;;28.00;;
25868;SDS011;13688;53.154;18.136;2022-11-15T21:57:12;56.65;;;27.90;;
25868;SDS011;13688;53.154;18.136;2022-11-15T22:02:35;57.25;;;27.77;;
25868;SDS011;13688;53.154;18.136;2022-11-15T22:07:57;57.93;;;27.48;;
25868;SDS011;13688;53.154;18.136;2022-11-15T22:13:19;55.35;;;27.77;;
25868;SDS011;13688;53.154;18.136;2022-11-15T22:18:42;58.85;;;28.90;;
25868;SDS011;13688;53.154;18.136;2022-11-15T22:24:05;61.90;;;28.27;;
25868;SDS011;13688;53.154;18.136;2022-11-15T22:29:27;57.25;;;27.35;;
25868;SDS011;13688;53.154;18.136;2022-11-15T22:34:50;54.15;;;27.48;;
25868;SDS011;13688;53.154;18.136;2022-11-15T22:40:13;60.78;;;28.62;;
25868;SDS011;13688;53.154;18.136;2022-11-15T22:45:36;61.33;;;28.83;;
25868;SDS011;13688;53.154;18.136;2022-11-15T22:51:08;60.33;;;28.67;;
25868;SDS011;13688;53.154;18.136;2022-11-15T22:56:31;59.20;;;29.95;;
25868;SDS011;13688;53.154;18.136;2022-11-15T23:01:54;61.35;;;29.75;;
25868;SDS011;13688;53.154;18.136;2022-11-15T23:07:18;57.40;;;29.65;;
25868;SDS011;13688;53.154;18.136;2022-11-15T23:12:41;54.25;;;28.42;;
25868;SDS011;13688;53.154;18.136;2022-11-15T23:18:21;53.90;;;26.52;;
25868;SDS011;13688;53.154;18.136;2022-11-15T23:23:46;52.35;;;26.35;;
25868;SDS011;13688;53.154;18.136;2022-11-15T23:29:09;49.48;;;25.75;;
25868;SDS011;13688;53.154;18.136;2022-11-15T23:34:36;46.23;;;24.40;;
25868;SDS011;13688;53.154;18.136;2022-11-15T23:40:00;44.42;;;23.70;;
25868;SDS011;13688;53.154;18.136;2022-11-15T23:45:23;46.23;;;23.92;;
25868;SDS011;13688;53.154;18.136;2022-11-15T23:50:46;40.33;;;22.60;;
25868;SDS011;13688;53.154;18.136;2022-11-15T23:56:15;35.50;;;20.23;;
